Time;durP1;ratioP1;P1;durP2;ratioP2;P2;SDS_P1;SDS_P2;PMS_P1;PMS_P2;Temp;Humidity;BMP_temperature;BMP_pressure;BME280_temperature;BME280_humidity;BME280_pressure;Samples;Min_cycle;Max_cycle;Signal;HPM_P1;HPM_P2
2022/05/11 00:00:14;;;;;;;0.50;0.50;;;;;;;;;;4178235;28;20057;-41
2022/05/11 00:02:15;;;;;;;0.75;0.43;;;;;;;;;;4180106;28;20091;-39
2022/05/11 00:04:16;;;;;;;1.60;0.65;;;;;;;;;;4179926;28;20487;-40
2022/05/11 00:06:17;;;;;;;0.50;0.40;;;;;;;;;;4180146;28;20476;-38
2022/05/11 00:08:18;;;;;;;1.13;0.60;;;;;;;;;;4179914;28;20479;-40
2022/05/11 00:10:20;;;;;;;0.65;0.40;;;;;;;;;;4179844;28;20102;-39
2022/05/11 00:12:22;;;;;;;0.82;0.60;;;;;;;;;;4179942;28;20114;-40
2022/05/11 00:14:22;;;;;;;0.70;0.40;;;;;;;;;;4179288;28;20529;-39
2022/05/11 00:16:24;;;;;;;0.90;0.60;;;;;;;;;;4179866;28;20492;-40
2022/05/11 00:18:25;;;;;;;0.65;0.50;;;;;;;;;;4179872;28;20044;-40
2022/05/11 00:20:27;;;;;;;0.50;0.40;;;;;;;;;;4179670;28;20045;-37
2022/05/11 00:22:28;;;;;;;0.88;0.50;;;;;;;;;;4179879;28;20412;-39
2022/05/11 00:24:29;;;;;;;1.45;0.68;;;;;;;;;;4179569;28;20098;-41
2022/05/11 00:26:31;;;;;;;1.35;0.50;;;;;;;;;;4179709;28;20052;-39
2022/05/11 00:28:32;;;;;;;1.55;0.60;;;;;;;;;;4179559;28;20059;-41
2022/05/11 00:30:33;;;;;;;0.90;0.60;;;;;;;;;;4179763;28;20120;-40
2022/05/11 00:32:34;;;;;;;0.60;0.50;;;;;;;;;;4179661;28;20178;-42
2022/05/11 00:34:35;;;;;;;0.75;0.40;;;;;;;;;;4179593;28;20103;-40
2022/05/11 00:36:36;;;;;;;0.65;0.40;;;;;;;;;;4179591;28;20045;-40
2022/05/11 00:38:38;;;;;;;0.63;0.50;;;;;;;;;;4179399;28;20045;-41
2022/05/11 00:40:43;;;;;;;1.05;0.90;;;;;;;;;;4178503;28;20056;-39
2022/05/11 00:42:44;;;;;;;0.68;0.60;;;;;;;;;;4179863;28;20045;-41
2022/05/11 00:44:45;;;;;;;0.63;0.50;;;;;;;;;;4178988;28;20103;-41
2022/05/11 00:46:54;;;;;;;0.52;0.40;;;;;;;;;;4179599;28;20048;-40
2022/05/11 00:51:17;;;;;;;0.88;0.50;;;;;;;;;;4179582;28;20442;-38
2022/05/11 00:53:18;;;;;;;1.38;0.50;;;;;;;;;;4179319;28;20444;-39
2022/05/11 00:55:24;;;;;;;0.73;0.40;;;;;;;;;;4179166;28;20102;-41
2022/05/11 00:57:29;;;;;;;0.68;0.50;;;;;;;;;;4179429;28;20049;-37
2022/05/11 00:59:34;;;;;;;0.52;0.40;;;;;;;;;;4179075;28;20045;-40
2022/05/11 01:01:36;;;;;;;0.47;0.35;;;;;;;;;;4179319;28;20064;-40
2022/05/11 01:03:46;;;;;;;0.80;0.50;;;;;;;;;;4178874;28;20454;-39
2022/05/11 01:05:47;;;;;;;;;;;;;;;;;;4179914;28;20045;-41
2022/05/11 01:07:49;;;;;;;0.65;0.40;;;;;;;;;;4179237;28;19917;-40
2022/05/11 01:09:50;;;;;;;0.40;0.40;;;;;;;;;;4179136;28;20049;-40
2022/05/11 01:11:54;;;;;;;0.75;0.40;;;;;;;;;;4179178;28;20091;-40
2022/05/11 01:13:56;;;;;;;0.40;0.40;;;;;;;;;;4178762;28;20057;-39
2022/05/11 01:15:58;;;;;;;0.52;0.38;;;;;;;;;;4179512;28;20049;-39
2022/05/11 01:18:03;;;;;;;0.63;0.50;;;;;;;;;;4179333;28;20041;-40
2022/05/11 01:20:08;;;;;;;0.38;0.38;;;;;;;;;;4179289;28;20072;-40
2022/05/11 01:22:09;;;;;;;0.70;0.50;;;;;;;;;;4179269;28;20102;-39
2022/05/11 01:24:27;;;;;;;0.52;0.50;;;;;;;;;;4179141;28;20056;-39
2022/05/11 01:26:32;;;;;;;1.17;0.65;;;;;;;;;;4179161;28;20261;-40
2022/05/11 01:28:33;;;;;;;0.85;0.40;;;;;;;;;;4178942;28;20071;-39
2022/05/11 01:30:35;;;;;;;0.40;0.32;;;;;;;;;;4178869;28;20094;-41
2022/05/11 01:32:36;;;;;;;0.55;0.47;;;;;;;;;;4179110;28;20086;-41
2022/05/11 01:34:38;;;;;;;0.88;0.57;;;;;;;;;;4178965;28;20084;-40
2022/05/11 01:36:39;;;;;;;0.50;0.40;;;;;;;;;;4179107;28;20045;-39
2022/05/11 01:38:48;;;;;;;1.08;0.55;;;;;;;;;;4178987;28;20090;-41
2022/05/11 01:40:49;;;;;;;1.08;0.50;;;;;;;;;;4179060;28;20408;-41
2022/05/11 01:42:50;;;;;;;0.50;0.40;;;;;;;;;;4177729;28;20041;-39
2022/05/11 01:44:51;;;;;;;0.57;0.40;;;;;;;;;;4178460;28;20118;-38
2022/05/11 01:46:53;;;;;;;0.70;0.32;;;;;;;;;;4178990;28;20499;-40
2022/05/11 01:48:54;;;;;;;0.47;0.40;;;;;;;;;;4178909;28;20095;-39
2022/05/11 01:50:55;;;;;;;0.63;0.35;;;;;;;;;;4178961;28;20527;-41
2022/05/11 01:52:56;;;;;;;0.88;0.50;;;;;;;;;;4178800;28;20049;-41
2022/05/11 01:54:57;;;;;;;1.02;0.70;;;;;;;;;;4178685;28;20493;-37
2022/05/11 01:57:00;;;;;;;0.47;0.32;;;;;;;;;;4179039;28;20242;-39
2022/05/11 01:59:00;;;;;;;0.90;0.70;;;;;;;;;;4176899;28;20114;-39
2022/05/11 02:01:02;;;;;;;1.02;0.50;;;;;;;;;;4178644;28;20095;-40
2022/05/11 02:03:03;;;;;;;0.50;0.40;;;;;;;;;;4177721;28;20103;-38
2022/05/11 02:09:44;;;;;;;0.68;0.50;;;;;;;;;;4177541;28;20053;-40
2022/05/11 02:11:45;;;;;;;0.43;0.30;;;;;;;;;;4178744;28;20044;-41
2022/05/11 02:13:47;;;;;;;0.68;0.30;;;;;;;;;;4178239;28;20045;-39
2022/05/11 02:15:50;;;;;;;0.93;0.40;;;;;;;;;;4179078;28;20053;-41
2022/05/11 02:17:51;;;;;;;0.52;0.40;;;;;;;;;;4181938;28;20265;-39
2022/05/11 02:19:52;;;;;;;0.60;0.50;;;;;;;;;;4181686;28;20045;-41
2022/05/11 02:21:53;;;;;;;0.40;0.40;;;;;;;;;;4181758;28;20135;-42
2022/05/11 02:23:54;;;;;;;0.40;0.38;;;;;;;;;;4181819;28;20049;-40
2022/05/11 02:25:56;;;;;;;0.50;0.38;;;;;;;;;;4181933;28;20095;-40
2022/05/11 02:27:57;;;;;;;0.45;0.40;;;;;;;;;;4181728;28;20459;-39
2022/05/11 02:29:58;;;;;;;1.08;0.47;;;;;;;;;;4181367;28;20052;-39
2022/05/11 02:31:59;;;;;;;0.52;0.40;;;;;;;;;;4181883;28;20049;-41
2022/05/11 02:34:02;;;;;;;0.60;0.40;;;;;;;;;;4181365;28;20045;-39
2022/05/11 02:36:03;;;;;;;0.55;0.40;;;;;;;;;;4181575;28;20385;-40
2022/05/11 02:38:06;;;;;;;0.50;0.30;;;;;;;;;;4181341;28;20047;-40
2022/05/11 02:40:07;;;;;;;0.38;0.30;;;;;;;;;;4181388;28;20507;-40
2022/05/11 02:42:08;;;;;;;1.95;0.65;;;;;;;;;;4181326;28;20049;-40
2022/05/11 02:44:09;;;;;;;0.55;0.40;;;;;;;;;;4180920;28;20423;-39
2022/05/11 02:46:11;;;;;;;0.60;0.40;;;;;;;;;;4181302;28;20049;-40
2022/05/11 02:48:13;;;;;;;0.82;0.40;;;;;;;;;;4181593;28;20075;-40
2022/05/11 02:50:16;;;;;;;0.73;0.40;;;;;;;;;;4181186;28;20049;-39
2022/05/11 02:52:18;;;;;;;0.82;0.50;;;;;;;;;;4181175;28;20057;-38
2022/05/11 02:54:20;;;;;;;0.38;0.30;;;;;;;;;;4180962;28;20087;-41
2022/05/11 02:56:21;;;;;;;0.70;0.50;;;;;;;;;;4181263;28;20545;-41
2022/05/11 02:58:23;;;;;;;0.85;0.30;;;;;;;;;;4181224;28;20091;-37
2022/05/11 03:00:24;;;;;;;1.75;0.40;;;;;;;;;;4180587;28;20053;-40
2022/05/11 03:02:25;;;;;;;0.60;0.40;;;;;;;;;;4181124;28;20052;-37
2022/05/11 03:04:26;;;;;;;0.43;0.43;;;;;;;;;;4180948;28;20485;-40
2022/05/11 03:06:27;;;;;;;0.50;0.40;;;;;;;;;;4213014;28;20541;-41
2022/05/11 03:08:29;;;;;;;0.20;0.20;;;;;;;;;;4180922;28;20126;-39
2022/05/11 03:10:30;;;;;;;0.77;0.40;;;;;;;;;;4180944;28;20056;-40
2022/05/11 03:12:32;;;;;;;0.68;0.30;;;;;;;;;;4180944;28;20413;-40
2022/05/11 03:14:33;;;;;;;0.65;0.43;;;;;;;;;;4180288;28;20045;-38
2022/05/11 03:16:34;;;;;;;0.32;0.30;;;;;;;;;;4180838;28;20061;-37
2022/05/11 03:18:35;;;;;;;0.35;0.35;;;;;;;;;;4180649;28;20045;-37
2022/05/11 03:20:36;;;;;;;0.60;0.50;;;;;;;;;;4180733;28;20048;-39
2022/05/11 03:22:37;;;;;;;1.30;0.35;;;;;;;;;;4180825;28;20442;-38
2022/05/11 03:24:38;;;;;;;0.30;0.30;;;;;;;;;;4180627;28;20053;-38
2022/05/11 03:26:39;;;;;;;0.70;0.40;;;;;;;;;;4180773;28;20053;-39
2022/05/11 03:28:40;;;;;;;0.65;0.30;;;;;;;;;;4180191;28;20055;-39
2022/05/11 03:30:41;;;;;;;0.75;0.45;;;;;;;;;;4180614;28;20049;-39
2022/05/11 03:35:03;;;;;;;0.25;0.25;;;;;;;;;;4180728;28;20079;-39
2022/05/11 03:37:08;;;;;;;0.50;0.30;;;;;;;;;;4180536;28;20045;-40
2022/05/11 03:39:10;;;;;;;0.80;0.35;;;;;;;;;;4180682;28;20516;-37
2022/05/11 03:41:11;;;;;;;0.50;0.40;;;;;;;;;;4180728;28;20118;-38
2022/05/11 03:43:12;;;;;;;0.30;0.30;;;;;;;;;;4180546;28;20126;-41
2022/05/11 03:45:13;;;;;;;0.32;0.22;;;;;;;;;;4179874;28;20123;-40
2022/05/11 03:47:14;;;;;;;0.40;0.30;;;;;;;;;;4180482;28;20041;-40
2022/05/11 03:49:15;;;;;;;0.30;0.28;;;;;;;;;;4180312;28;20079;-40
2022/05/11 03:51:16;;;;;;;0.50;0.40;;;;;;;;;;4180561;28;20091;-41
2022/05/11 03:53:17;;;;;;;0.75;0.40;;;;;;;;;;4180277;28;20045;-40
2022/05/11 03:55:19;;;;;;;0.63;0.40;;;;;;;;;;4180086;28;20095;-41
2022/05/11 03:57:21;;;;;;;0.50;0.22;;;;;;;;;;4180245;28;20382;-40
2022/05/11 03:59:22;;;;;;;0.68;0.43;;;;;;;;;;4179716;28;20049;-40
2022/05/11 04:01:23;;;;;;;0.90;0.50;;;;;;;;;;4179966;28;20191;-40
2022/05/11 04:03:24;;;;;;;0.47;0.32;;;;;;;;;;4178654;28;20153;-38
2022/05/11 04:05:25;;;;;;;0.30;0.20;;;;;;;;;;4179891;28;20045;-39
2022/05/11 04:07:25;;;;;;;0.50;0.40;;;;;;;;;;4180222;28;20102;-39
2022/05/11 04:09:26;;;;;;;0.32;0.20;;;;;;;;;;4179886;28;20091;-40
2022/05/11 04:11:29;;;;;;;0.35;0.30;;;;;;;;;;4180299;28;20102;-39
2022/05/11 04:13:29;;;;;;;0.73;0.40;;;;;;;;;;4179948;28;20044;-39
2022/05/11 04:15:30;;;;;;;0.40;0.40;;;;;;;;;;4178035;28;20091;-37
2022/05/11 04:17:31;;;;;;;1.00;0.47;;;;;;;;;;4180006;28;20049;-41
2022/05/11 04:19:32;;;;;;;0.30;0.30;;;;;;;;;;4179741;28;20190;-40
2022/05/11 04:21:33;;;;;;;0.60;0.38;;;;;;;;;;4179906;28;20052;-40
2022/05/11 04:23:34;;;;;;;0.90;0.50;;;;;;;;;;4179635;28;20160;-39
2022/05/11 04:25:35;;;;;;;0.65;0.40;;;;;;;;;;4179939;28;20049;-41
2022/05/11 04:27:36;;;;;;;0.47;0.30;;;;;;;;;;4179784;28;20049;-40
2022/05/11 04:29:38;;;;;;;0.77;0.45;;;;;;;;;;4179168;28;20083;-40
2022/05/11 04:31:39;;;;;;;0.30;0.25;;;;;;;;;;4179714;28;20095;-38
2022/05/11 04:33:40;;;;;;;0.63;0.52;;;;;;;;;;4179223;28;20540;-39
2022/05/11 04:35:41;;;;;;;0.22;0.22;;;;;;;;;;4179537;28;20045;-39
2022/05/11 04:37:44;;;;;;;0.40;0.28;;;;;;;;;;4179711;28;20049;-41
2022/05/11 04:39:45;;;;;;;2.38;0.50;;;;;;;;;;4178906;28;20391;-40
2022/05/11 04:41:46;;;;;;;0.30;0.30;;;;;;;;;;4179297;28;20095;-39
2022/05/11 04:43:47;;;;;;;0.40;0.40;;;;;;;;;;4177767;28;20049;-39
2022/05/11 04:45:48;;;;;;;0.35;0.30;;;;;;;;;;4179436;28;20122;-38
2022/05/11 04:47:49;;;;;;;0.82;0.43;;;;;;;;;;4179287;28;20049;-41
2022/05/11 04:49:51;;;;;;;0.95;0.30;;;;;;;;;;4179338;28;20103;-39
2022/05/11 04:52:01;;;;;;;0.40;0.30;;;;;;;;;;4179477;28;20048;-41
2022/05/11 04:54:02;;;;;;;0.30;0.30;;;;;;;;;;4179159;28;20071;-41
2022/05/11 04:56:03;;;;;;;0.52;0.30;;;;;;;;;;4179514;28;20045;-39
2022/05/11 04:58:04;;;;;;;0.82;0.40;;;;;;;;;;4179190;28;20389;-40
2022/05/11 05:00:09;;;;;;;0.30;0.30;;;;;;;;;;4177938;28;20462;-40
2022/05/11 05:02:17;;;;;;;0.73;0.50;;;;;;;;;;4176629;28;20045;-40
2022/05/11 05:04:19;;;;;;;1.25;0.32;;;;;;;;;;4177652;28;20053;-38
2022/05/11 05:06:20;;;;;;;0.50;0.30;;;;;;;;;;4177580;28;20094;-38
2022/05/11 05:08:21;;;;;;;0.80;0.30;;;;;;;;;;4177258;28;20106;-42
2022/05/11 05:10:22;;;;;;;0.57;0.40;;;;;;;;;;4177187;28;20160;-42
2022/05/11 05:12:24;;;;;;;0.50;0.30;;;;;;;;;;4177125;28;20500;-39
2022/05/11 05:14:25;;;;;;;1.48;0.50;;;;;;;;;;4175193;28;20134;-41
2022/05/11 05:16:26;;;;;;;0.52;0.30;;;;;;;;;;4192669;28;20045;-39
2022/05/11 05:18:28;;;;;;;1.23;0.30;;;;;;;;;;4175655;28;20060;-40
2022/05/11 05:20:30;;;;;;;0.50;0.30;;;;;;;;;;4176975;28;20045;-41
2022/05/11 05:22:31;;;;;;;1.85;0.52;;;;;;;;;;4177117;28;20049;-39
2022/05/11 05:24:32;;;;;;;0.77;0.43;;;;;;;;;;4176495;28;20103;-41
2022/05/11 05:26:33;;;;;;;0.35;0.30;;;;;;;;;;4177019;28;20088;-42
2022/05/11 05:31:05;;;;;;;0.55;0.32;;;;;;;;;;4175811;28;20048;-38
2022/05/11 05:33:06;;;;;;;0.85;0.40;;;;;;;;;;4177152;28;20139;-41
2022/05/11 05:35:08;;;;;;;0.50;0.30;;;;;;;;;;4177258;28;20478;-40
2022/05/11 05:37:09;;;;;;;0.55;0.30;;;;;;;;;;4176955;28;20055;-39
2022/05/11 05:39:10;;;;;;;0.45;0.40;;;;;;;;;;4177015;28;20072;-40
2022/05/11 05:41:11;;;;;;;0.77;0.50;;;;;;;;;;4175710;28;20088;-38
2022/05/11 05:43:12;;;;;;;0.73;0.28;;;;;;;;;;4176912;28;20520;-40
2022/05/11 05:45:13;;;;;;;0.57;0.50;;;;;;;;;;4175006;28;20481;-38
2022/05/11 05:47:16;;;;;;;1.10;0.40;;;;;;;;;;4176953;28;20045;-38
2022/05/11 05:49:17;;;;;;;1.23;0.50;;;;;;;;;;4176707;28;20044;-41
2022/05/11 05:51:19;;;;;;;1.52;0.60;;;;;;;;;;4178173;28;20507;-40
2022/05/11 05:53:21;;;;;;;0.52;0.30;;;;;;;;;;4180158;28;20425;-38
2022/05/11 05:55:22;;;;;;;0.63;0.25;;;;;;;;;;4179915;28;20102;-38
2022/05/11 05:57:23;;;;;;;1.25;0.40;;;;;;;;;;4180075;28;20053;-41
2022/05/11 05:59:25;;;;;;;0.57;0.43;;;;;;;;;;4179520;28;20079;-41
2022/05/11 06:01:26;;;;;;;1.08;0.50;;;;;;;;;;4179654;28;20049;-40
2022/05/11 06:03:28;;;;;;;1.75;0.50;;;;;;;;;;4179810;28;20098;-39
2022/05/11 06:05:29;;;;;;;1.08;0.50;;;;;;;;;;4179811;28;20061;-41
2022/05/11 06:07:30;;;;;;;1.48;0.80;;;;;;;;;;4179828;28;20053;-40
2022/05/11 06:09:31;;;;;;;1.15;0.50;;;;;;;;;;4179715;28;20475;-40
2022/05/11 06:11:32;;;;;;;1.35;0.40;;;;;;;;;;4179788;28;20539;-40
2022/05/11 06:13:33;;;;;;;0.85;0.40;;;;;;;;;;4179301;28;20102;-41
2022/05/11 06:15:35;;;;;;;0.35;0.20;;;;;;;;;;4179486;28;20065;-39
2022/05/11 06:17:36;;;;;;;2.90;0.52;;;;;;;;;;4179784;28;20053;-37
2022/05/11 06:19:38;;;;;;;1.27;0.50;;;;;;;;;;4178305;28;20673;-40
2022/05/11 06:21:39;;;;;;;2.05;0.57;;;;;;;;;;4177261;28;20049;-42
2022/05/11 06:23:41;;;;;;;1.08;0.60;;;;;;;;;;4175904;28;20044;-39
2022/05/11 06:25:42;;;;;;;0.82;0.40;;;;;;;;;;4183694;28;20569;-40
2022/05/11 06:27:42;;;;;;;2.05;0.75;;;;;;;;;;4193844;28;20473;-38
2022/05/11 06:29:50;;;;;;;0.47;0.32;;;;;;;;;;4175107;28;20307;-40
2022/05/11 06:31:51;;;;;;;2.78;0.70;;;;;;;;;;4173599;28;20056;-39
2022/05/11 06:33:55;;;;;;;1.02;0.47;;;;;;;;;;4182057;28;20075;-40
2022/05/11 06:35:56;;;;;;;1.65;0.50;;;;;;;;;;4185714;28;20393;-40
2022/05/11 06:38:01;;;;;;;3.50;0.70;;;;;;;;;;4196563;28;20198;-39
2022/05/11 06:40:03;;;;;;;2.72;0.45;;;;;;;;;;4180212;28;20102;-39
2022/05/11 06:42:12;;;;;;;0.93;0.50;;;;;;;;;;4178847;28;20049;-42
2022/05/11 06:44:13;;;;;;;1.85;0.65;;;;;;;;;;4175851;28;20056;-37
2022/05/11 06:46:14;;;;;;;0.45;0.35;;;;;;;;;;4179589;28;20180;-41
2022/05/11 06:48:15;;;;;;;4.43;0.60;;;;;;;;;;4187217;28;20504;-42
2022/05/11 06:50:16;;;;;;;1.52;0.63;;;;;;;;;;4173553;28;20053;-43
2022/05/11 06:52:18;;;;;;;1.67;0.50;;;;;;;;;;4180540;28;20049;-42
2022/05/11 07:01:18;;;;;;;2.17;0.40;;;;;;;;;;4172360;28;20102;-43
2022/05/11 07:03:19;;;;;;;1.35;0.45;;;;;;;;;;4175140;28;20496;-43
2022/05/11 07:05:20;;;;;;;1.17;0.60;;;;;;;;;;4169304;28;20146;-43
2022/05/11 07:07:21;;;;;;;3.03;0.60;;;;;;;;;;4174679;28;20053;-43
2022/05/11 07:09:24;;;;;;;0.93;0.55;;;;;;;;;;4177985;28;20037;-42
2022/05/11 07:13:44;;;;;;;2.08;0.40;;;;;;;;;;4208310;28;20048;-41
2022/05/11 07:15:45;;;;;;;0.52;0.30;;;;;;;;;;4176897;28;20110;-44
2022/05/11 07:17:48;;;;;;;2.65;0.57;;;;;;;;;;4176645;28;20072;-43
2022/05/11 07:19:49;;;;;;;0.98;0.47;;;;;;;;;;4197816;28;20549;-43
2022/05/11 07:21:51;;;;;;;1.08;0.30;;;;;;;;;;4176818;28;20049;-42
2022/05/11 07:23:52;;;;;;;1.77;0.50;;;;;;;;;;4177872;28;20430;-42
2022/05/11 07:25:52;;;;;;;2.30;0.40;;;;;;;;;;4178602;28;20106;-42
2022/05/11 07:27:55;;;;;;;2.13;0.60;;;;;;;;;;4177928;28;20053;-43
2022/05/11 07:29:56;;;;;;;1.90;0.68;;;;;;;;;;4177886;28;20083;-41
2022/05/11 07:31:57;;;;;;;1.85;0.40;;;;;;;;;;4175070;28;20065;-43
2022/05/11 07:33:58;;;;;;;1.17;0.40;;;;;;;;;;4184245;28;20508;-42
2022/05/11 07:35:59;;;;;;;1.70;0.57;;;;;;;;;;4177774;28;20067;-43
2022/05/11 07:38:00;;;;;;;1.77;0.50;;;;;;;;;;4176732;28;20144;-41
2022/05/11 07:40:01;;;;;;;1.65;0.65;;;;;;;;;;4176115;28;20483;-42
2022/05/11 07:42:02;;;;;;;1.30;0.30;;;;;;;;;;4176756;28;20412;-41
2022/05/11 07:44:03;;;;;;;1.20;0.50;;;;;;;;;;4174024;28;20064;-40
2022/05/11 07:46:04;;;;;;;1.00;0.40;;;;;;;;;;4175929;28;20049;-40
2022/05/11 07:48:06;;;;;;;1.95;0.43;;;;;;;;;;4167219;28;20118;-42
2022/05/11 07:50:08;;;;;;;0.98;0.50;;;;;;;;;;4184627;28;21293;-41
2022/05/11 07:52:09;;;;;;;2.35;0.38;;;;;;;;;;4173775;28;20111;-42
2022/05/11 07:54:10;;;;;;;3.40;0.60;;;;;;;;;;4173277;28;20083;-40
2022/05/11 08:00:50;;;;;;;3.53;0.77;;;;;;;;;;4168190;28;20531;-43
2022/05/11 08:02:51;;;;;;;1.38;0.47;;;;;;;;;;4176101;28;20033;-43
2022/05/11 08:04:57;;;;;;;1.02;0.45;;;;;;;;;;4171075;28;20122;-43
2022/05/11 08:06:58;;;;;;;2.42;0.60;;;;;;;;;;4176267;28;20457;-41
2022/05/11 08:09:00;;;;;;;0.73;0.50;;;;;;;;;;4174066;28;20048;-42
2022/05/11 08:11:01;;;;;;;1.55;0.60;;;;;;;;;;4174971;28;20056;-42
2022/05/11 08:13:05;;;;;;;2.13;0.57;;;;;;;;;;4172274;28;20053;-43
2022/05/11 08:15:06;;;;;;;1.00;0.60;;;;;;;;;;4176173;28;20053;-40
2022/05/11 08:17:07;;;;;;;1.42;0.60;;;;;;;;;;4175186;28;20102;-41
2022/05/11 08:19:09;;;;;;;1.65;0.50;;;;;;;;;;4172639;28;21867;-40
2022/05/11 08:21:10;;;;;;;2.55;0.40;;;;;;;;;;4174413;28;20987;-42
2022/05/11 08:23:11;;;;;;;1.42;0.50;;;;;;;;;;4172798;28;20102;-42
2022/05/11 08:25:13;;;;;;;1.35;0.50;;;;;;;;;;4168103;28;20743;-41
2022/05/11 08:27:16;;;;;;;2.20;0.50;;;;;;;;;;4175646;28;20052;-41
2022/05/11 08:33:57;;;;;;;2.40;0.30;;;;;;;;;;4173641;28;20057;-40
2022/05/11 08:36:00;;;;;;;1.65;0.47;;;;;;;;;;4168700;28;20084;-41
2022/05/11 08:38:02;;;;;;;3.88;0.60;;;;;;;;;;4172140;28;20488;-42
2022/05/11 08:40:03;;;;;;;2.17;0.38;;;;;;;;;;4173058;28;20053;-42
2022/05/11 08:42:04;;;;;;;1.55;0.40;;;;;;;;;;4165595;28;20048;-44
2022/05/11 08:44:05;;;;;;;1.63;0.50;;;;;;;;;;4177192;28;20117;-40
2022/05/11 08:46:22;;;;;;;1.15;0.40;;;;;;;;;;4172212;28;20497;-41
2022/05/11 08:48:36;;;;;;;1.40;0.52;;;;;;;;;;4167068;28;20098;-41
2022/05/11 08:50:38;;;;;;;0.80;0.50;;;;;;;;;;4170277;28;20091;-41
2022/05/11 08:52:51;;;;;;;1.42;0.35;;;;;;;;;;4173914;28;20053;-40
2022/05/11 08:55:12;;;;;;;0.95;0.35;;;;;;;;;;4169316;28;20040;-40
2022/05/11 08:57:17;;;;;;;1.90;0.30;;;;;;;;;;4180060;28;20064;-39
2022/05/11 08:59:23;;;;;;;0.75;0.40;;;;;;;;;;4173815;28;21356;-41
2022/05/11 09:01:30;;;;;;;3.13;0.55;;;;;;;;;;4174856;28;20412;-40
2022/05/11 09:03:41;;;;;;;3.53;0.40;;;;;;;;;;4178192;28;20073;-40
2022/05/11 09:05:42;;;;;;;3.25;0.75;;;;;;;;;;4169123;28;20099;-39
2022/05/11 09:07:45;;;;;;;1.10;0.50;;;;;;;;;;4173245;28;20162;-42
2022/05/11 09:09:46;;;;;;;0.82;0.40;;;;;;;;;;4172936;28;20408;-41
2022/05/11 09:11:49;;;;;;;2.10;0.45;;;;;;;;;;4207780;28;20076;-42
2022/05/11 09:13:50;;;;;;;0.60;0.45;;;;;;;;;;4180899;28;20048;-40
2022/05/11 09:15:55;;;;;;;2.00;0.30;;;;;;;;;;4204803;28;20048;-42
2022/05/11 09:18:03;;;;;;;1.40;0.52;;;;;;;;;;4177002;28;20512;-42
2022/05/11 09:20:04;;;;;;;0.82;0.30;;;;;;;;;;4175396;28;20098;-41
2022/05/11 09:22:17;;;;;;;1.30;0.30;;;;;;;;;;4190615;28;20051;-42
2022/05/11 09:24:17;;;;;;;3.35;0.57;;;;;;;;;;4175939;28;20053;-43
2022/05/11 09:26:27;;;;;;;1.65;0.50;;;;;;;;;;4182475;28;20064;-41
2022/05/11 09:28:29;;;;;;;2.60;0.77;;;;;;;;;;4175666;28;20041;-42
2022/05/11 09:30:30;;;;;;;1.20;0.50;;;;;;;;;;4178582;28;20094;-42
2022/05/11 09:32:37;;;;;;;3.78;0.60;;;;;;;;;;4176983;28;20892;-45
2022/05/11 09:34:38;;;;;;;2.17;0.40;;;;;;;;;;4176621;28;20045;-43
2022/05/11 09:36:41;;;;;;;1.05;0.35;;;;;;;;;;4176273;28;20515;-42
2022/05/11 09:38:43;;;;;;;4.75;0.57;;;;;;;;;;4180516;28;20351;-43
2022/05/11 09:40:53;;;;;;;1.92;0.45;;;;;;;;;;4175258;28;20134;-43
2022/05/11 09:42:56;;;;;;;1.15;0.47;;;;;;;;;;4182295;28;20064;-42
2022/05/11 09:44:58;;;;;;;0.90;0.30;;;;;;;;;;4175572;28;20568;-43
2022/05/11 09:46:59;;;;;;;1.80;0.40;;;;;;;;;;4175479;28;20105;-42
2022/05/11 09:49:04;;;;;;;0.80;0.38;;;;;;;;;;4183929;28;20441;-43
2022/05/11 09:51:22;;;;;;;2.30;0.40;;;;;;;;;;4183357;28;20101;-42
2022/05/11 09:53:26;;;;;;;1.13;0.40;;;;;;;;;;4178693;28;20053;-42
2022/05/11 09:55:28;;;;;;;1.45;0.70;;;;;;;;;;4181762;28;20049;-42
2022/05/11 09:57:29;;;;;;;1.45;0.73;;;;;;;;;;4179590;28;20074;-41
2022/05/11 09:59:32;;;;;;;1.52;0.60;;;;;;;;;;4175996;28;20099;-42
2022/05/11 10:01:33;;;;;;;1.17;0.40;;;;;;;;;;4179471;28;20044;-42
2022/05/11 10:03:34;;;;;;;1.77;0.40;;;;;;;;;;4177435;28;20047;-43
2022/05/11 10:05:43;;;;;;;1.92;0.52;;;;;;;;;;4176772;28;20110;-41
2022/05/11 10:07:53;;;;;;;0.90;0.32;;;;;;;;;;4180344;28;20040;-44
2022/05/11 10:10:00;;;;;;;2.90;0.52;;;;;;;;;;4182648;28;20500;-42
2022/05/11 10:12:01;;;;;;;2.63;0.30;;;;;;;;;;4181132;28;20094;-43
2022/05/11 10:21:50;;;;;;;0.55;0.35;;;;;;;;;;4181325;28;20532;-43
2022/05/11 10:23:59;;;;;;;1.35;0.20;;;;;;;;;;4184370;28;20041;-42
2022/05/11 10:26:04;;;;;;;6.32;0.68;;;;;;;;;;4185130;28;20048;-41
2022/05/11 10:28:05;;;;;;;2.67;0.50;;;;;;;;;;4182227;28;20071;-42
2022/05/11 10:30:13;;;;;;;1.10;0.30;;;;;;;;;;4182528;28;20044;-42
2022/05/11 10:32:19;;;;;;;1.23;0.30;;;;;;;;;;4178628;28;20048;-42
2022/05/11 10:34:28;;;;;;;1.15;0.40;;;;;;;;;;4179672;28;20053;-42
2022/05/11 10:36:41;;;;;;;1.38;0.28;;;;;;;;;;4181501;28;20064;-41
2022/05/11 10:38:52;;;;;;;2.45;0.60;;;;;;;;;;4182354;28;20045;-43
2022/05/11 10:40:56;;;;;;;0.73;0.45;;;;;;;;;;4181235;28;20508;-43
2022/05/11 10:43:15;;;;;;;1.33;0.50;;;;;;;;;;4178396;28;20060;-43
2022/05/11 10:45:19;;;;;;;1.42;0.50;;;;;;;;;;4176572;28;20041;-42
2022/05/11 10:47:39;;;;;;;1.02;0.40;;;;;;;;;;4176062;28;20071;-42
2022/05/11 10:49:43;;;;;;;0.75;0.30;;;;;;;;;;4171531;28;20480;-42
2022/05/11 10:51:55;;;;;;;0.68;0.30;;;;;;;;;;4169149;28;20812;-42
2022/05/11 10:53:57;;;;;;;2.05;0.20;;;;;;;;;;4173233;28;20048;-42
2022/05/11 10:56:04;;;;;;;0.82;0.50;;;;;;;;;;4175520;28;20048;-42
2022/05/11 10:58:25;;;;;;;0.55;0.22;;;;;;;;;;4185481;28;20051;-42
2022/05/11 11:00:28;;;;;;;0.60;0.30;;;;;;;;;;4175738;28;20114;-42
2022/05/11 11:02:48;;;;;;;1.38;0.30;;;;;;;;;;4172060;28;20061;-42
2022/05/11 11:05:07;;;;;;;2.42;0.40;;;;;;;;;;4185600;28;20056;-42
2022/05/11 11:07:14;;;;;;;1.05;0.30;;;;;;;;;;4175830;28;20456;-42
2022/05/11 11:09:20;;;;;;;1.10;0.50;;;;;;;;;;4179771;28;20097;-42
2022/05/11 11:11:23;;;;;;;0.70;0.40;;;;;;;;;;4176642;28;20131;-42
2022/05/11 11:13:30;;;;;;;1.48;0.47;;;;;;;;;;4172830;28;20114;-42
2022/05/11 11:15:35;;;;;;;1.48;0.40;;;;;;;;;;4175703;28;20056;-42
2022/05/11 11:17:36;;;;;;;0.77;0.35;;;;;;;;;;4178294;28;20590;-43
2022/05/11 11:19:40;;;;;;;0.80;0.40;;;;;;;;;;4170031;28;20040;-42
2022/05/11 11:21:42;;;;;;;1.25;0.40;;;;;;;;;;4176323;28;20053;-43
2022/05/11 11:23:48;;;;;;;1.02;0.60;;;;;;;;;;4176461;28;20483;-42
2022/05/11 11:25:57;;;;;;;1.13;0.50;;;;;;;;;;4168397;28;20151;-43
2022/05/11 11:28:00;;;;;;;1.67;0.98;;;;;;;;;;4174535;28;20056;-43
2022/05/11 11:30:13;;;;;;;1.30;0.47;;;;;;;;;;4172097;28;20072;-43
2022/05/11 11:32:19;;;;;;;1.17;0.38;;;;;;;;;;4170662;28;20049;-43
2022/05/11 11:34:23;;;;;;;1.55;0.65;;;;;;;;;;4202059;28;20044;-43
2022/05/11 11:36:32;;;;;;;1.23;0.40;;;;;;;;;;4174345;28;20044;-43
2022/05/11 11:38:39;;;;;;;0.80;0.50;;;;;;;;;;4171359;28;20048;-43
2022/05/11 11:40:40;;;;;;;0.95;0.30;;;;;;;;;;4205734;28;20047;-43
2022/05/11 11:42:42;;;;;;;0.75;0.40;;;;;;;;;;4173006;28;20052;-42
2022/05/11 11:44:46;;;;;;;1.55;0.30;;;;;;;;;;4169943;28;20635;-42
2022/05/11 11:46:48;;;;;;;1.10;0.40;;;;;;;;;;4169640;28;20480;-44
2022/05/11 11:49:00;;;;;;;4.00;0.70;;;;;;;;;;4171355;28;20056;-43
2022/05/11 11:51:03;;;;;;;2.13;0.70;;;;;;;;;;4175774;28;21374;-44
2022/05/11 11:53:09;;;;;;;1.15;0.30;;;;;;;;;;4173224;28;20478;-44
2022/05/11 11:55:19;;;;;;;2.58;0.60;;;;;;;;;;4171903;28;20044;-42
2022/05/11 11:57:23;;;;;;;1.83;0.55;;;;;;;;;;4173598;28;20060;-43
2022/05/11 11:59:24;;;;;;;1.15;0.30;;;;;;;;;;4172726;28;20516;-43
2022/05/11 12:01:26;;;;;;;0.95;0.38;;;;;;;;;;4174242;28;20726;-42
2022/05/11 12:03:30;;;;;;;2.08;0.50;;;;;;;;;;4174825;28;20052;-43
2022/05/11 12:05:39;;;;;;;0.40;0.30;;;;;;;;;;4171710;28;20044;-42
2022/05/11 12:15:04;;;;;;;0.88;0.30;;;;;;;;;;4172046;28;20048;-43
2022/05/11 12:17:05;;;;;;;;;;;;;;;;;;4172620;28;20083;-43
2022/05/11 12:19:11;;;;;;;1.75;0.30;;;;;;;;;;4170416;28;19925;-41
2022/05/11 12:21:29;;;;;;;3.00;0.50;;;;;;;;;;4174691;28;20059;-43
2022/05/11 12:23:38;;;;;;;1.73;0.50;;;;;;;;;;4172504;28;20404;-43
2022/05/11 12:25:39;;;;;;;1.50;0.45;;;;;;;;;;4176072;28;20060;-43
2022/05/11 12:27:40;;;;;;;2.20;0.47;;;;;;;;;;4175186;28;20076;-42
2022/05/11 12:29:56;;;;;;;1.23;0.70;;;;;;;;;;4176793;28;20127;-42
2022/05/11 12:31:59;;;;;;;1.02;0.40;;;;;;;;;;4175438;28;20052;-43
2022/05/11 12:34:00;;;;;;;0.85;0.40;;;;;;;;;;4176887;28;20114;-43
2022/05/11 12:36:01;;;;;;;1.73;0.50;;;;;;;;;;4175468;28;20552;-43
2022/05/11 12:38:04;;;;;;;0.65;0.40;;;;;;;;;;4166299;28;20052;-43
2022/05/11 12:40:05;;;;;;;2.35;0.60;;;;;;;;;;4169460;28;20082;-42
2022/05/11 12:42:07;;;;;;;1.63;0.50;;;;;;;;;;4172714;28;20049;-42
2022/05/11 12:44:12;;;;;;;1.42;0.40;;;;;;;;;;4174497;28;20121;-42
2022/05/11 12:46:16;;;;;;;0.80;0.40;;;;;;;;;;4171754;28;20056;-43
2022/05/11 12:48:37;;;;;;;0.98;0.43;;;;;;;;;;4170649;28;20759;-43
2022/05/11 12:50:47;;;;;;;1.02;0.43;;;;;;;;;;4174804;28;20063;-43
2022/05/11 12:52:48;;;;;;;;;;;;;;;;;;4174826;28;20174;-44
2022/05/11 12:54:56;;;;;;;0.98;0.30;;;;;;;;;;4167854;28;19916;-43
2022/05/11 12:57:02;;;;;;;0.47;0.30;;;;;;;;;;4168263;28;20111;-43
2022/05/11 12:59:05;;;;;;;1.52;0.50;;;;;;;;;;4165518;28;20052;-43
2022/05/11 13:01:06;;;;;;;0.47;0.30;;;;;;;;;;4177495;28;20052;-43
2022/05/11 13:03:22;;;;;;;1.65;0.40;;;;;;;;;;4169257;28;20052;-42